メインページ
METAR-TAF:

METAR-TAF

空港 :

ポートエンジェルス, ワシントン, アメリカ合衆国

緯度: 48-07-20N, 経度: 123-30-19W, 海抜: 87m

現時点の気象観測

当レポートは17分前の03:18(UTC)に作成
西の風 10kt
気温 11°C
湿度 100%
気圧 1012 hPa
視程: 11.3km
高度500ftの雲は散在している

METAR: KCLM 240318Z AUTO 27010KT 7SM SCT005 11/11 A2987 RMK AO2 T01110106

時間: 20:35 (03:35 UTC)

予報

当レポートは4時間15分前の23:20(UTC)に作成
予報は24日の 00時(UTC)から 24日の 24時(UTC)まで有効
西/北西の風 10kt
視程: 10km
高度1000ftの雲はほとんどない
高度20000ftの雲は散在している
24日の 0600時(UTC)から
西/北西の風 7kt
視程: 10km
高度1000ftの曇り
24日の 1800時(UTC)から
西の風 8kt
視程: 10km
高度1500ftの千切れ雲あり
高度2000ftの曇り
24日の 2000時(UTC)から
北西の風 8kt
視程: 10km
高度2500ftの千切れ雲あり
高度3000ftの千切れ雲あり

TAF: KCLM 232320Z 2400/2424 30010KT P6SM FEW010 SCT200 FM240600 29007KT P6SM OVC010 FM241800 28008KT P6SM BKN015 OVC020 FM242000 32008KT P6SM BKN025 BKN030

4,000以上の空港の気象観測と天気予報(METAR報とTAF報)

利用可能な観測所は地図上に黄色い丸と赤い丸で示す。

丸の上にカーソルを重ねると観測所名を参照できる。

次にクリックすると気象観測と天気予報を参照できる。

マップの切り替え:黒色「×」印の緑ボタンをクリックして拡大、「-」印の緑ボタンをクリックして縮小、緑色の三角印をクリックして隣りの地図に切り替え


METAR-TAF: